Time;durP1;ratioP1;P1;durP2;ratioP2;P2;SDS_P1;SDS_P2;PMS_P1;PMS_P2;Temp;Humidity;BMP_temperature;BMP_pressure;BME280_temperature;BME280_humidity;BME280_pressure;Samples;Min_cycle;Max_cycle;Signal;HPM_P1;HPM_P2
2021/12/18 00:01:02;;;;;;;4.72;4.32;;;20.00;34.30;;;;;;5146704;27;47288;-16
2021/12/18 00:03:29;;;;;;;5.65;4.60;;;20.10;34.40;;;;;;5147038;27;46889;-17
2021/12/18 00:05:56;;;;;;;4.82;4.38;;;20.10;34.40;;;;;;5146640;27;46902;-16
2021/12/18 00:08:22;;;;;;;5.43;4.88;;;20.10;34.40;;;;;;5146914;27;47065;-17
2021/12/18 00:10:49;;;;;;;5.70;4.65;;;20.10;34.40;;;;;;5146542;27;46879;-26
2021/12/18 00:13:16;;;;;;;6.28;4.78;;;20.10;34.50;;;;;;5147678;27;46955;-25
2021/12/18 00:15:44;;;;;;;6.78;4.40;;;20.10;34.40;;;;;;5150395;27;47110;-26
2021/12/18 00:18:10;;;;;;;5.65;4.93;;;20.10;34.40;;;;;;5150475;27;49062;-26
2021/12/18 00:20:38;;;;;;;4.60;4.20;;;20.10;34.40;;;;;;5150089;27;47008;-26
2021/12/18 00:23:05;;;;;;;5.20;4.70;;;20.20;34.40;;;;;;5150154;27;46878;-25
2021/12/18 00:25:32;;;;;;;4.70;4.30;;;20.20;34.30;;;;;;5150273;27;47119;-26
2021/12/18 00:27:58;;;;;;;5.32;4.70;;;20.20;34.30;;;;;;5150059;27;46854;-26
2021/12/18 00:30:26;;;;;;;4.63;4.22;;;20.20;34.30;;;;;;5149724;27;47117;-26
2021/12/18 00:32:54;;;;;;;4.68;4.28;;;20.20;34.30;;;;;;5150361;27;46819;-26
2021/12/18 00:35:20;;;;;;;4.88;4.38;;;20.20;34.30;;;;;;5149982;27;46991;-16
2021/12/18 00:37:47;;;;;;;4.45;4.05;;;20.20;34.20;;;;;;5150168;27;48148;-17
2021/12/18 00:40:20;;;;;;;4.20;3.80;;;20.20;34.30;;;;;;5149629;27;46732;-16
2021/12/18 00:42:49;;;;;;;5.28;4.30;;;20.20;34.30;;;;;;5150351;27;46796;-17
2021/12/18 00:45:17;;;;;;;6.07;4.60;;;20.20;34.90;;;;;;5149845;27;46956;-16
2021/12/18 00:47:44;;;;;;;5.28;4.50;;;20.20;34.30;;;;;;5150041;27;46913;-16
2021/12/18 00:50:13;;;;;;;5.05;4.10;;;20.20;34.30;;;;;;5149594;27;47061;-17
2021/12/18 00:52:40;;;;;;;5.10;4.60;;;20.20;34.30;;;;;;5150094;27;46750;-17
2021/12/18 00:55:08;;;;;;;5.22;4.45;;;20.20;34.30;;;;;;5149849;27;47307;-16
2021/12/18 00:57:36;;;;;;;6.00;4.30;;;20.20;34.30;;;;;;5149695;27;47838;-17
2021/12/18 01:00:04;;;;;;;4.78;4.22;;;20.20;34.30;;;;;;5149206;27;46930;-17
2021/12/18 01:02:30;;;;;;;4.63;4.07;;;20.20;34.30;;;;;;5149928;27;46875;-17
2021/12/18 01:04:57;;;;;;;4.43;4.03;;;20.10;34.30;;;;;;5149685;27;47282;-16
2021/12/18 01:07:25;;;;;;;4.13;3.72;;;20.10;34.30;;;;;;5149722;27;49073;-17
2021/12/18 01:10:01;;;;;;;4.90;4.40;;;20.10;34.20;;;;;;5149233;27;46896;-17
2021/12/18 01:12:33;;;;;;;4.32;3.90;;;20.10;34.20;;;;;;5149905;27;46858;-16
2021/12/18 01:15:12;;;;;;;4.45;4.05;;;20.10;34.20;;;;;;5149494;27;46907;-17
2021/12/18 01:23:22;;;;;;;3.92;3.60;;;20.10;34.30;;;;;;5139201;27;46789;-16
2021/12/18 01:25:48;;;;;;;3.83;3.42;;;20.10;34.30;;;;;;5148945;27;47325;-17
2021/12/18 01:28:15;;;;;;;4.95;3.92;;;20.00;34.30;;;;;;5149405;27;49096;-26
2021/12/18 01:30:42;;;;;;;3.88;3.45;;;20.00;34.40;;;;;;5148556;27;46967;-26
2021/12/18 01:33:08;;;;;;;3.80;3.50;;;20.10;34.40;;;;;;5149458;27;46892;-26
2021/12/18 01:35:35;;;;;;;3.70;3.40;;;20.10;34.30;;;;;;5149042;27;47259;-26
2021/12/18 01:38:02;;;;;;;3.55;3.25;;;20.10;34.30;;;;;;5148868;27;47944;-26
2021/12/18 01:40:30;;;;;;;3.80;3.50;;;20.10;34.40;;;;;;5149061;27;46834;-26
2021/12/18 01:46:08;;;;;;;3.92;3.55;;;20.10;34.30;;;;;;5143521;27;46783;-26
2021/12/18 01:51:22;;;;;;;3.15;2.95;;;20.20;34.30;;;;;;5121800;27;47103;-26
2021/12/18 01:53:51;;;;;;;3.88;3.58;;;20.20;34.20;;;;;;5143592;27;48179;-26
2021/12/18 01:56:18;;;;;;;3.78;3.47;;;20.20;34.20;;;;;;5143799;27;46865;-26
2021/12/18 01:58:45;;;;;;;3.75;3.40;;;20.20;34.20;;;;;;5143938;27;46726;-26
2021/12/18 02:01:13;;;;;;;3.60;3.30;;;20.20;34.30;;;;;;5144225;27;47289;-26
2021/12/18 02:03:40;;;;;;;3.38;3.13;;;20.20;34.30;;;;;;5143477;27;48061;-26
2021/12/18 02:06:08;;;;;;;3.40;3.10;;;20.20;34.20;;;;;;5143562;27;46810;-26
2021/12/18 02:08:36;;;;;;;3.50;3.20;;;20.20;34.20;;;;;;5143876;27;46912;-26
2021/12/18 02:11:12;;;;;;;3.40;3.10;;;20.20;34.20;;;;;;5143898;27;46937;-26
2021/12/18 02:14:00;;;;;;;3.33;3.03;;;20.20;34.20;;;;;;5143605;27;48782;-24
2021/12/18 02:21:57;;;;;;;3.58;3.00;;;20.20;34.30;;;;;;5141053;27;46894;-26
2021/12/18 02:24:27;;;;;;;3.47;3.13;;;20.10;34.20;;;;;;5143222;27;49091;-26
2021/12/18 02:26:54;;;;;;;3.45;2.97;;;20.10;34.20;;;;;;5143295;27;46983;-27
2021/12/18 02:29:21;;;;;;;3.38;3.08;;;20.10;34.20;;;;;;5143097;27;46936;-26
2021/12/18 02:31:47;;;;;;;3.08;2.78;;;20.10;34.20;;;;;;5143467;27;46906;-26
2021/12/18 02:34:24;;;;;;;2.97;2.67;;;20.10;34.20;;;;;;5143129;27;49032;-26
2021/12/18 02:36:50;;;;;;;3.30;3.00;;;20.10;34.30;;;;;;5143496;27;46886;-27
2021/12/18 02:39:24;;;;;;;3.00;2.80;;;20.10;34.30;;;;;;5142871;27;46880;-27
2021/12/18 02:42:08;;;;;;;3.10;2.90;;;20.10;34.30;;;;;;5143784;27;47094;-27
2021/12/18 02:44:35;;;;;;;3.83;3.40;;;20.10;34.30;;;;;;5142539;27;48197;-26
2021/12/18 02:47:02;;;;;;;2.85;2.65;;;20.10;34.30;;;;;;5142945;27;46954;-26
2021/12/18 02:49:28;;;;;;;3.20;2.90;;;20.10;34.30;;;;;;5142864;27;46949;-26
2021/12/18 02:51:55;;;;;;;3.53;3.22;;;20.10;34.30;;;;;;5143291;27;46848;-26
2021/12/18 02:54:23;;;;;;;3.30;3.00;;;20.00;34.30;;;;;;5142663;27;48165;-26
2021/12/18 02:56:50;;;;;;;3.08;2.85;;;20.00;34.30;;;;;;5131125;27;46828;-26
2021/12/18 02:59:17;;;;;;;3.40;3.10;;;20.00;34.40;;;;;;5128913;27;47061;-26
2021/12/18 03:01:44;;;;;;;2.78;2.55;;;20.00;34.40;;;;;;5129220;27;46934;-26
2021/12/18 03:04:20;;;;;;;2.63;2.42;;;20.00;34.40;;;;;;5128538;27;47389;-26
2021/12/18 03:06:49;;;;;;;3.22;2.92;;;20.00;34.40;;;;;;5128848;27;46958;-26
2021/12/18 03:23:26;;;;;;;2.58;2.38;;;20.10;34.30;;;;;;5126204;27;47026;-27
2021/12/18 03:25:56;;;;;;;3.10;2.90;;;20.20;34.30;;;;;;5128431;27;46818;-26
2021/12/18 03:28:24;;;;;;;3.20;2.90;;;20.20;34.80;;;;;;5128838;27;46917;-26
2021/12/18 03:30:51;;;;;;;2.80;2.45;;;20.20;34.20;;;;;;5128316;27;46975;-26
2021/12/18 03:33:18;;;;;;;3.20;2.90;;;20.20;34.30;;;;;;5128663;27;46912;-26
2021/12/18 03:35:45;;;;;;;3.10;2.90;;;20.20;34.20;;;;;;5128440;27;48902;-26
2021/12/18 03:38:12;;;;;;;3.00;2.80;;;20.20;34.20;;;;;;5128557;27;47160;-26
2021/12/18 03:40:39;;;;;;;2.88;2.60;;;20.20;34.20;;;;;;5128455;27;47052;-26
2021/12/18 03:43:05;;;;;;;3.03;2.75;;;20.20;34.30;;;;;;5128707;27;46922;-26
2021/12/18 03:45:33;;;;;;;2.67;2.47;;;20.20;34.30;;;;;;5127695;27;48120;-26
2021/12/18 03:48:00;;;;;;;3.30;2.67;;;20.10;34.20;;;;;;5128364;27;46887;-26
2021/12/18 03:50:27;;;;;;;3.05;2.72;;;20.10;34.20;;;;;;5127781;27;46820;-26
2021/12/18 03:52:55;;;;;;;2.60;2.40;;;20.10;34.20;;;;;;5128547;27;47247;-26
2021/12/18 03:55:22;;;;;;;3.00;2.63;;;20.10;34.30;;;;;;5127896;27;48278;-26
2021/12/18 03:57:48;;;;;;;3.00;2.80;;;20.10;34.30;;;;;;5128129;27;46989;-26
2021/12/18 04:00:16;;;;;;;2.60;2.40;;;20.10;34.30;;;;;;5127681;27;46986;-26
2021/12/18 04:02:44;;;;;;;3.17;2.90;;;20.10;34.30;;;;;;5128290;27;46891;-26
2021/12/18 04:05:11;;;;;;;2.60;2.40;;;20.10;34.30;;;;;;5127347;27;47058;-26
2021/12/18 04:07:42;;;;;;;3.08;2.75;;;20.10;34.30;;;;;;5127028;27;46983;-26
2021/12/18 04:10:09;;;;;;;2.75;2.50;;;20.00;34.30;;;;;;5128139;27;46803;-26
2021/12/18 04:12:36;;;;;;;2.47;2.35;;;20.00;34.30;;;;;;5128351;27;46897;-26
2021/12/18 04:15:03;;;;;;;2.80;2.60;;;20.00;34.30;;;;;;5127323;27;47911;-26
2021/12/18 04:17:29;;;;;;;2.55;2.35;;;20.00;34.40;;;;;;5127726;27;46762;-26
2021/12/18 04:19:58;;;;;;;2.38;2.22;;;20.00;34.30;;;;;;5127637;27;47073;-26
2021/12/18 04:22:24;;;;;;;2.50;2.30;;;20.00;34.30;;;;;;5128398;27;46883;-26
2021/12/18 04:24:51;;;;;;;2.70;2.50;;;20.00;34.30;;;;;;5127338;27;48119;-26
2021/12/18 04:27:18;;;;;;;2.80;2.60;;;20.00;34.30;;;;;;5127897;27;47010;-26
2021/12/18 04:29:44;;;;;;;2.70;2.50;;;20.00;34.30;;;;;;5127294;27;46844;-26
2021/12/18 04:32:11;;;;;;;3.13;2.55;;;20.00;34.30;;;;;;5127918;27;46806;-26
2021/12/18 04:34:38;;;;;;;3.00;2.80;;;20.00;34.30;;;;;;5127218;27;48022;-26
2021/12/18 04:37:06;;;;;;;2.72;2.53;;;20.10;34.30;;;;;;5127617;27;47600;-27
2021/12/18 04:39:32;;;;;;;2.60;2.40;;;20.10;34.30;;;;;;5127467;27;46891;-26
2021/12/18 04:41:59;;;;;;;2.80;2.60;;;20.10;34.20;;;;;;5127498;27;46879;-26
2021/12/18 04:44:26;;;;;;;2.60;2.40;;;20.10;34.20;;;;;;5126406;27;48137;-26
2021/12/18 04:46:53;;;;;;;2.88;2.55;;;20.10;34.20;;;;;;5127412;27;46903;-26
2021/12/18 04:49:20;;;;;;;2.70;2.50;;;20.10;34.10;;;;;;5127189;27;46969;-18
2021/12/18 04:51:46;;;;;;;2.42;2.22;;;20.10;34.10;;;;;;5127955;27;47123;-17
2021/12/18 04:54:14;;;;;;;2.38;2.25;;;20.10;34.10;;;;;;5126832;27;47027;-26
2021/12/18 04:56:41;;;;;;;2.53;2.33;;;20.10;34.10;;;;;;5127366;27;47393;-26
2021/12/18 04:59:08;;;;;;;3.00;2.70;;;20.10;34.60;;;;;;5126964;27;47003;-26
2021/12/18 05:01:39;;;;;;;2.80;2.60;;;20.10;34.10;;;;;;5127522;27;46994;-26
2021/12/18 05:04:08;;;;;;;2.55;2.35;;;20.10;34.10;;;;;;5126593;27;48894;-26
2021/12/18 05:06:36;;;;;;;2.47;2.30;;;20.10;34.00;;;;;;5126868;27;46817;-26
2021/12/18 05:09:03;;;;;;;2.70;2.50;;;20.10;34.00;;;;;;5126687;27;46852;-26
2021/12/18 05:11:31;;;;;;;2.33;2.13;;;20.10;34.00;;;;;;5127376;27;47087;-26
2021/12/18 05:13:58;;;;;;;2.63;2.42;;;20.10;34.10;;;;;;5126515;27;47974;-26
2021/12/18 05:16:25;;;;;;;2.30;2.10;;;20.10;34.00;;;;;;5127039;27;46982;-27
2021/12/18 05:18:51;;;;;;;2.60;2.40;;;20.10;34.00;;;;;;5126366;27;46978;-26
2021/12/18 05:21:18;;;;;;;2.72;2.28;;;20.10;34.60;;;;;;5126922;27;47249;-26
2021/12/18 05:23:45;;;;;;;2.38;2.17;;;20.10;34.00;;;;;;5126613;27;47925;-26
2021/12/18 05:26:11;;;;;;;2.42;2.22;;;20.00;34.00;;;;;;5126722;27;46860;-26
2021/12/18 05:28:39;;;;;;;2.50;2.30;;;20.10;34.10;;;;;;5126853;27;46943;-26
2021/12/18 05:31:07;;;;;;;2.47;2.28;;;20.10;34.00;;;;;;5127082;27;46918;-18
2021/12/18 05:33:33;;;;;;;2.53;2.33;;;20.10;34.00;;;;;;5126473;27;47818;-26
2021/12/18 05:36:00;;;;;;;2.70;2.50;;;20.00;34.00;;;;;;5126578;27;47195;-26
2021/12/18 05:38:27;;;;;;;2.40;2.20;;;20.00;34.00;;;;;;5126687;27;46839;-26
2021/12/18 05:40:53;;;;;;;2.38;2.17;;;20.00;34.00;;;;;;5126730;27;46896;-26
2021/12/18 05:43:20;;;;;;;2.45;2.25;;;20.00;34.00;;;;;;5126500;27;48230;-26
2021/12/18 05:45:48;;;;;;;2.40;2.20;;;20.00;34.00;;;;;;5126260;27;47448;-26
2021/12/18 05:48:15;;;;;;;2.22;2.10;;;20.00;34.00;;;;;;5126733;27;46793;-26
2021/12/18 05:50:45;;;;;;;2.47;2.28;;;20.00;34.00;;;;;;5126290;27;47374;-17
2021/12/18 05:53:13;;;;;;;2.25;2.05;;;20.00;34.00;;;;;;5126506;27;48775;-17
2021/12/18 05:55:40;;;;;;;2.65;2.45;;;20.00;34.00;;;;;;5126207;27;46821;-17
2021/12/18 05:58:07;;;;;;;2.42;2.22;;;20.00;34.00;;;;;;5126333;27;46899;-18
2021/12/18 06:00:33;;;;;;;2.58;2.38;;;20.00;33.90;;;;;;5126120;27;47318;-17
2021/12/18 06:03:02;;;;;;;2.35;2.15;;;20.10;34.00;;;;;;5126072;27;48131;-17
2021/12/18 06:05:28;;;;;;;2.22;2.08;;;20.10;33.90;;;;;;5125876;27;46896;-17
2021/12/18 06:07:57;;;;;;;1.92;1.83;;;20.10;33.90;;;;;;5126090;27;46810;-17
2021/12/18 06:10:25;;;;;;;2.00;1.90;;;20.10;33.80;;;;;;5126439;27;46768;-17
2021/12/18 06:12:51;;;;;;;1.95;1.85;;;20.10;33.80;;;;;;5126326;27;48226;-17
2021/12/18 06:15:18;;;;;;;2.90;2.13;;;20.10;33.80;;;;;;5125569;27;47227;-17
2021/12/18 06:17:45;;;;;;;2.22;2.13;;;20.10;33.80;;;;;;5126326;27;46887;-17
2021/12/18 06:20:13;;;;;;;2.10;1.90;;;20.10;33.80;;;;;;5125711;27;46788;-16
2021/12/18 06:22:39;;;;;;;2.20;2.00;;;20.10;33.70;;;;;;5125891;27;49131;-17
2021/12/18 06:25:07;;;;;;;2.53;2.33;;;20.10;33.70;;;;;;5125542;27;47029;-17
2021/12/18 06:27:34;;;;;;;2.22;2.13;;;20.10;33.70;;;;;;5126268;27;46906;-17
2021/12/18 06:30:01;;;;;;;2.42;2.22;;;20.10;33.70;;;;;;5126063;27;47276;-17
2021/12/18 06:32:28;;;;;;;2.38;2.17;;;20.10;33.70;;;;;;5129274;27;48085;-17
2021/12/18 06:34:55;;;;;;;2.03;1.92;;;20.10;33.70;;;;;;5129243;27;47247;-16
2021/12/18 06:37:23;;;;;;;2.22;2.08;;;20.10;33.70;;;;;;5129393;27;46874;-17
2021/12/18 06:39:50;;;;;;;2.20;2.10;;;20.10;33.70;;;;;;5129407;27;47281;-16
2021/12/18 06:42:17;;;;;;;2.60;2.40;;;20.00;33.70;;;;;;5129385;27;48214;-18
2021/12/18 06:44:43;;;;;;;2.47;2.28;;;20.00;34.30;;;;;;5128657;27;46978;-16
2021/12/18 06:47:10;;;;;;;2.33;2.13;;;20.00;33.70;;;;;;5129385;27;46735;-18
2021/12/18 06:49:37;;;;;;;2.40;2.20;;;20.00;33.70;;;;;;5129167;27;47310;-16
2021/12/18 06:52:04;;;;;;;2.83;2.60;;;20.00;33.70;;;;;;5129201;27;46879;-17
2021/12/18 06:54:32;;;;;;;2.10;1.90;;;20.00;33.70;;;;;;5129011;27;46965;-17
2021/12/18 06:57:01;;;;;;;2.20;2.00;;;20.00;33.70;;;;;;5129052;27;46816;-26
2021/12/18 06:59:28;;;;;;;2.30;2.10;;;20.00;33.70;;;;;;5128979;27;46828;-26
2021/12/18 07:01:55;;;;;;;2.05;1.95;;;20.00;33.70;;;;;;5129168;27;49022;-26
2021/12/18 07:04:22;;;;;;;1.90;1.80;;;20.00;33.70;;;;;;5128719;27;46805;-26
2021/12/18 07:06:49;;;;;;;2.05;1.90;;;20.00;33.80;;;;;;5128953;27;46906;-26
2021/12/18 07:09:16;;;;;;;2.05;1.95;;;20.00;33.80;;;;;;5128653;27;47274;-26
2021/12/18 07:11:44;;;;;;;2.15;2.00;;;19.90;33.70;;;;;;5129033;27;48226;-26
2021/12/18 07:14:11;;;;;;;2.50;2.30;;;19.90;33.70;;;;;;5128282;27;46992;-26
2021/12/18 07:16:37;;;;;;;2.42;2.22;;;19.90;33.70;;;;;;5128757;27;46791;-27
2021/12/18 07:19:04;;;;;;;2.20;2.10;;;20.00;33.80;;;;;;5128742;27;47316;-26
2021/12/18 07:21:31;;;;;;;2.20;2.10;;;20.00;33.70;;;;;;5128899;27;46885;-26
2021/12/18 07:23:57;;;;;;;2.20;2.10;;;20.00;33.70;;;;;;5128165;27;46807;-26
2021/12/18 07:26:24;;;;;;;1.98;1.88;;;20.00;33.70;;;;;;5128763;27;46922;-26
2021/12/18 07:28:52;;;;;;;2.55;2.20;;;20.00;33.70;;;;;;5128621;27;46865;-26
2021/12/18 07:31:19;;;;;;;2.00;1.90;;;20.00;33.70;;;;;;5128665;27;49099;-26
2021/12/18 07:33:45;;;;;;;1.90;1.80;;;20.00;34.30;;;;;;5128380;27;46954;-27
2021/12/18 07:36:14;;;;;;;2.38;2.17;;;20.00;33.60;;;;;;5128323;27;46866;-26
2021/12/18 07:38:41;;;;;;;2.15;2.03;;;20.10;33.60;;;;;;5128146;27;47142;-17
2021/12/18 07:41:08;;;;;;;2.15;2.05;;;20.10;33.60;;;;;;5128272;27;48099;-18
2021/12/18 07:43:35;;;;;;;2.55;2.35;;;20.10;33.60;;;;;;5127838;27;46907;-17
2021/12/18 07:46:03;;;;;;;2.47;2.28;;;20.00;33.40;;;;;;5128054;27;46896;-18
2021/12/18 07:48:30;;;;;;;2.30;2.20;;;20.10;33.60;;;;;;5128610;27;46895;-17
2021/12/18 07:50:56;;;;;;;2.33;2.15;;;20.10;34.20;;;;;;5128303;27;49031;-17
2021/12/18 07:53:24;;;;;;;2.22;2.05;;;20.10;33.60;;;;;;5128295;27;47133;-17
2021/12/18 07:55:51;;;;;;;2.38;2.17;;;20.00;33.60;;;;;;5128222;27;46804;-18
2021/12/18 07:58:17;;;;;;;2.50;2.30;;;20.00;33.60;;;;;;5128283;27;46909;-26
2021/12/18 08:00:44;;;;;;;2.25;2.15;;;20.00;33.60;;;;;;5127750;27;47963;-26
2021/12/18 08:03:12;;;;;;;2.22;2.03;;;20.00;34.20;;;;;;5127912;27;46886;-27
2021/12/18 08:05:39;;;;;;;2.20;2.00;;;20.00;33.60;;;;;;5127647;27;46935;-26
2021/12/18 08:08:06;;;;;;;2.42;2.22;;;20.00;34.20;;;;;;5128329;27;46914;-26
2021/12/18 08:10:32;;;;;;;2.25;2.13;;;20.00;33.60;;;;;;5127315;27;49028;-26
2021/12/18 08:12:59;;;;;;;2.70;2.50;;;19.90;33.60;;;;;;5127703;27;47097;-26
2021/12/18 08:15:26;;;;;;;2.53;2.22;;;20.00;33.70;;;;;;5127884;27;46827;-26
2021/12/18 08:17:52;;;;;;;2.47;2.28;;;20.00;33.60;;;;;;5128182;27;46932;-18
2021/12/18 08:20:20;;;;;;;2.58;2.38;;;19.90;33.50;;;;;;5127606;27;48376;-19
2021/12/18 08:22:47;;;;;;;2.40;2.20;;;19.90;33.60;;;;;;5127808;27;47105;-17
2021/12/18 08:25:14;;;;;;;2.35;2.15;;;19.90;33.60;;;;;;5127698;27;47108;-17
2021/12/18 08:27:41;;;;;;;2.40;2.20;;;19.90;33.60;;;;;;5127927;27;46856;-17
2021/12/18 08:30:09;;;;;;;2.47;2.28;;;19.90;33.50;;;;;;5127288;27;48338;-17
2021/12/18 08:32:35;;;;;;;2.47;2.30;;;19.90;33.60;;;;;;5127863;27;47415;-18
2021/12/18 08:35:02;;;;;;;2.50;2.30;;;19.90;33.60;;;;;;5127150;27;46927;-26
2021/12/18 08:37:30;;;;;;;2.42;2.17;;;19.90;33.60;;;;;;5127739;27;46893;-26
2021/12/18 08:39:57;;;;;;;2.38;2.17;;;19.90;33.60;;;;;;5127033;27;46868;-26
2021/12/18 08:42:24;;;;;;;2.50;2.30;;;19.90;33.50;;;;;;5127513;27;46906;-26
2021/12/18 08:44:51;;;;;;;2.10;2.00;;;20.00;33.60;;;;;;5126622;27;46903;-26
2021/12/18 08:47:19;;;;;;;2.10;2.00;;;20.00;33.60;;;;;;5127371;27;47091;-26
2021/12/18 08:49:46;;;;;;;2.58;2.33;;;20.00;33.50;;;;;;5126804;27;47152;-27
2021/12/18 08:52:12;;;;;;;2.40;2.20;;;20.00;33.50;;;;;;5127227;27;46840;-26
2021/12/18 08:54:40;;;;;;;2.42;2.22;;;20.00;33.50;;;;;;5126323;27;46792;-27
2021/12/18 08:57:07;;;;;;;2.42;2.22;;;20.00;33.50;;;;;;5127296;27;47487;-26
2021/12/18 08:59:34;;;;;;;2.45;2.20;;;20.10;33.40;;;;;;5126689;27;49062;-29
2021/12/18 09:02:01;;;;;;;2.67;2.47;;;20.10;33.40;;;;;;5126893;27;46956;-27
2021/12/18 09:04:28;;;;;;;2.53;2.33;;;20.10;33.40;;;;;;5126084;27;47200;-26
2021/12/18 09:06:54;;;;;;;2.50;2.30;;;20.10;33.40;;;;;;5126899;27;46931;-26
2021/12/18 09:09:21;;;;;;;2.67;2.30;;;20.10;33.40;;;;;;5126821;27;48379;-26
2021/12/18 09:11:49;;;;;;;2.60;2.40;;;20.10;33.40;;;;;;5127037;27;47446;-26
2021/12/18 09:14:16;;;;;;;2.58;2.38;;;20.10;33.40;;;;;;5126698;27;46984;-27
2021/12/18 09:16:43;;;;;;;2.20;2.10;;;20.00;33.40;;;;;;5127213;27;46907;-26
2021/12/18 09:19:09;;;;;;;2.53;2.33;;;20.10;33.40;;;;;;5126189;27;47065;-26
2021/12/18 09:21:36;;;;;;;2.75;2.13;;;20.10;33.40;;;;;;5126686;27;46813;-27
2021/12/18 09:24:03;;;;;;;2.38;2.17;;;20.10;33.40;;;;;;5126628;27;46962;-27
2021/12/18 09:26:30;;;;;;;2.38;2.17;;;20.10;33.40;;;;;;5126778;27;47335;-27
2021/12/18 09:28:58;;;;;;;2.35;2.15;;;20.00;33.40;;;;;;5126516;27;48150;-26
2021/12/18 09:31:25;;;;;;;2.80;2.60;;;20.00;33.40;;;;;;5126511;27;46904;-26
2021/12/18 09:33:52;;;;;;;3.17;2.55;;;20.00;33.40;;;;;;5126643;27;47054;-28
2021/12/18 09:36:18;;;;;;;2.42;2.22;;;20.00;33.40;;;;;;5127001;27;47083;-27
2021/12/18 09:38:45;;;;;;;2.50;2.30;;;20.00;33.40;;;;;;5125938;27;48749;-26
2021/12/18 09:41:12;;;;;;;2.40;2.22;;;20.00;33.40;;;;;;5125638;27;47244;-26
2021/12/18 09:43:38;;;;;;;2.10;2.00;;;20.00;33.40;;;;;;5126547;27;46889;-27
2021/12/18 09:46:07;;;;;;;2.10;1.90;;;20.00;33.40;;;;;;5105898;27;46911;-27
2021/12/18 09:48:34;;;;;;;2.22;2.03;;;20.00;33.40;;;;;;5105814;27;46909;-26
2021/12/18 09:51:06;;;;;;;2.40;2.20;;;20.00;34.10;;;;;;5125956;27;47245;-26
2021/12/18 09:53:33;;;;;;;2.75;2.55;;;20.00;33.50;;;;;;5126541;27;47217;-26
2021/12/18 09:55:59;;;;;;;2.90;2.20;;;20.00;33.50;;;;;;5126229;27;47250;-26
2021/12/18 09:58:26;;;;;;;2.50;2.30;;;20.00;33.50;;;;;;5126253;27;47852;-26
2021/12/18 10:00:53;;;;;;;3.95;2.90;;;19.90;33.40;;;;;;5125951;27;46895;-26
2021/12/18 10:03:21;;;;;;;2.80;2.60;;;20.00;33.50;;;;;;5126087;27;46906;-26
2021/12/18 10:05:47;;;;;;;2.80;2.30;;;20.00;33.50;;;;;;5126748;27;47308;-27
2021/12/18 10:08:15;;;;;;;2.70;2.25;;;20.00;33.50;;;;;;5129543;27;46902;-26
2021/12/18 10:11:03;;;;;;;2.30;2.10;;;20.00;33.50;;;;;;5129895;27;47083;-26
2021/12/18 10:13:31;;;;;;;3.13;2.40;;;20.00;33.40;;;;;;5130002;27;46912;-17
2021/12/18 10:16:07;;;;;;;3.38;3.00;;;20.10;33.40;;;;;;5129932;27;47079;-18
2021/12/18 10:18:35;;;;;;;3.72;3.05;;;20.10;33.30;;;;;;5129165;27;46873;-17
2021/12/18 10:21:08;;;;;;;5.93;3.00;;;20.10;33.20;;;;;;5128463;27;46877;-17
2021/12/18 10:23:35;;;;;;;4.15;2.90;;;20.10;33.30;;;;;;5129908;27;46983;-17
2021/12/18 10:26:02;;;;;;;3.72;2.95;;;20.10;33.40;;;;;;5129564;27;46949;-18
2021/12/18 10:28:29;;;;;;;4.07;2.97;;;20.10;33.40;;;;;;5129495;27;48049;-17
2021/12/18 10:30:57;;;;;;;8.00;3.00;;;20.10;33.50;;;;;;5129091;27;46824;-18
2021/12/18 10:33:27;;;;;;;2.92;2.70;;;20.10;33.40;;;;;;5129507;27;46845;-17
2021/12/18 10:35:57;;;;;;;2.80;2.60;;;20.10;33.50;;;;;;5129384;27;46880;-17
2021/12/18 10:38:38;;;;;;;6.03;3.05;;;20.10;33.50;;;;;;5129305;27;48878;-18
2021/12/18 10:41:23;;;;;;;3.85;2.80;;;20.10;33.50;;;;;;5129448;27;46836;-17
2021/12/18 10:43:54;;;;;;;3.25;2.95;;;20.10;33.50;;;;;;5128846;27;46871;-18
2021/12/18 10:46:21;;;;;;;3.13;2.80;;;20.10;33.50;;;;;;5129695;27;47023;-18
2021/12/18 10:48:55;;;;;;;3.92;2.90;;;20.10;33.40;;;;;;5128586;27;46884;-17
2021/12/18 10:51:23;;;;;;;3.10;2.80;;;20.10;33.50;;;;;;5129100;27;47000;-18
2021/12/18 10:53:50;;;;;;;3.13;2.83;;;20.10;33.50;;;;;;5129030;27;46888;-17
2021/12/18 10:56:17;;;;;;;3.53;2.35;;;20.10;33.60;;;;;;5129093;27;46812;-18
2021/12/18 10:58:44;;;;;;;3.97;2.92;;;20.10;33.60;;;;;;5128902;27;48101;-17
2021/12/18 11:01:11;;;;;;;4.22;2.63;;;20.10;33.60;;;;;;5128808;27;47441;-18
2021/12/18 11:03:39;;;;;;;3.05;2.60;;;20.10;33.60;;;;;;5127497;27;46830;-17
2021/12/18 11:06:11;;;;;;;3.63;2.83;;;20.10;33.60;;;;;;5115998;27;46826;-18
2021/12/18 11:08:52;;;;;;;2.83;2.63;;;20.00;33.60;;;;;;5127787;27;47931;-17
2021/12/18 11:14:04;;;;;;;2.80;2.60;;;20.10;33.70;;;;;;5126023;27;46927;-18
2021/12/18 11:16:35;;;;;;;2.85;2.65;;;20.10;33.60;;;;;;5128210;27;47038;-18
2021/12/18 11:19:02;;;;;;;2.83;2.63;;;20.00;33.70;;;;;;5127986;27;47925;-26
2021/12/18 11:21:29;;;;;;;2.88;2.67;;;20.00;33.70;;;;;;5128336;27;46923;-27
2021/12/18 11:24:01;;;;;;;2.90;2.65;;;20.00;33.70;;;;;;5127888;27;47084;-26
2021/12/18 11:26:33;;;;;;;2.53;2.33;;;20.00;33.80;;;;;;5128496;27;46883;-27
2021/12/18 11:29:00;;;;;;;2.70;2.50;;;20.10;33.80;;;;;;5127935;27;48289;-27
2021/12/18 11:31:27;;;;;;;3.10;2.80;;;20.10;33.80;;;;;;5127866;27;46826;-26
2021/12/18 11:33:54;;;;;;;3.20;2.50;;;20.10;33.80;;;;;;5124309;27;48006;-27
2021/12/18 11:36:21;;;;;;;3.05;2.75;;;20.10;33.70;;;;;;5107409;27;46890;-26
2021/12/18 11:38:47;;;;;;;3.00;2.70;;;20.20;33.80;;;;;;5113081;27;47880;-26
2021/12/18 11:41:17;;;;;;;2.83;2.60;;;20.20;33.80;;;;;;5128105;27;47414;-27
2021/12/18 11:43:46;;;;;;;3.83;3.17;;;20.20;33.80;;;;;;5127891;27;46722;-27
2021/12/18 11:46:30;;;;;;;3.15;2.67;;;20.20;33.80;;;;;;5128731;27;47108;-26
2021/12/18 11:48:58;;;;;;;3.15;2.80;;;20.20;33.80;;;;;;5127317;27;47058;-26
2021/12/18 11:51:25;;;;;;;3.30;2.90;;;20.20;33.80;;;;;;5127298;27;46855;-26
2021/12/18 11:53:52;;;;;;;2.80;2.60;;;20.20;33.80;;;;;;5127315;27;46862;-27
2021/12/18 11:56:21;;;;;;;2.78;2.58;;;20.20;33.80;;;;;;5128095;27;46883;-26
2021/12/18 11:58:49;;;;;;;3.17;2.90;;;20.20;33.80;;;;;;5127477;27;48892;-26
2021/12/18 12:01:18;;;;;;;3.35;3.05;;;20.20;33.80;;;;;;5127572;27;46821;-27
2021/12/18 12:03:45;;;;;;;3.05;2.85;;;20.20;33.80;;;;;;5127462;27;46963;-27
2021/12/18 12:06:30;;;;;;;3.00;2.70;;;20.20;33.80;;;;;;5128187;27;46902;-27
2021/12/18 12:09:21;;;;;;;3.30;2.92;;;20.20;33.80;;;;;;5127489;27;46920;-18
2021/12/18 12:11:54;;;;;;;2.83;2.63;;;20.20;33.80;;;;;;5128146;27;47249;-17
2021/12/18 12:14:21;;;;;;;3.22;2.92;;;20.20;33.70;;;;;;5127541;27;46820;-18
2021/12/18 12:17:14;;;;;;;3.30;3.00;;;20.20;33.80;;;;;;5128301;27;47122;-26
2021/12/18 12:19:52;;;;;;;3.20;2.67;;;20.20;33.90;;;;;;5112651;27;48177;-26
2021/12/18 12:22:53;;;;;;;3.40;2.63;;;20.20;33.80;;;;;;5127444;27;46914;-27
2021/12/18 12:25:33;;;;;;;2.92;2.72;;;20.20;33.80;;;;;;5126956;27;46896;-26
2021/12/18 12:28:03;;;;;;;3.22;2.92;;;20.20;33.80;;;;;;5127036;27;47010;-26
2021/12/18 12:30:32;;;;;;;3.47;3.17;;;20.20;33.80;;;;;;5126225;27;47941;-26
2021/12/18 12:33:00;;;;;;;3.28;2.97;;;20.20;33.80;;;;;;5126659;27;47451;-27
2021/12/18 12:35:27;;;;;;;3.65;3.00;;;20.30;33.80;;;;;;5126646;27;47038;-27
2021/12/18 12:37:53;;;;;;;3.17;2.88;;;20.30;33.80;;;;;;5127760;27;47223;-26
2021/12/18 12:40:31;;;;;;;3.25;2.95;;;20.20;33.80;;;;;;5127364;27;49039;-26
2021/12/18 12:43:14;;;;;;;3.50;3.10;;;20.30;33.80;;;;;;5127227;27;46891;-26
2021/12/18 12:45:42;;;;;;;3.40;3.10;;;20.20;33.80;;;;;;5127265;27;46864;-26
2021/12/18 12:48:09;;;;;;;6.53;3.20;;;20.20;33.70;;;;;;5126807;27;47339;-28
2021/12/18 12:50:36;;;;;;;3.45;3.15;;;20.20;33.80;;;;;;5126962;27;47931;-27
2021/12/18 12:53:04;;;;;;;3.20;2.90;;;20.20;33.80;;;;;;5127691;27;47412;-27
2021/12/18 12:55:31;;;;;;;3.70;3.40;;;20.20;33.90;;;;;;5127156;27;46789;-28
2021/12/18 12:57:58;;;;;;;3.55;3.25;;;20.20;33.80;;;;;;5126578;27;47112;-27
2021/12/18 13:00:39;;;;;;;3.60;3.30;;;20.20;33.90;;;;;;5126069;27;47035;-27
2021/12/18 13:03:33;;;;;;;3.75;3.38;;;20.20;33.90;;;;;;5126180;27;46716;-17
2021/12/18 13:06:10;;;;;;;3.60;3.20;;;20.20;33.90;;;;;;5127135;27;46998;-17
2021/12/18 13:08:39;;;;;;;3.63;3.33;;;20.20;33.90;;;;;;5126883;27;46878;-17
2021/12/18 13:11:05;;;;;;;3.25;2.95;;;20.20;33.90;;;;;;5126060;27;48108;-18
2021/12/18 13:13:33;;;;;;;3.83;3.42;;;20.20;33.90;;;;;;5126539;27;47163;-27
2021/12/18 13:16:03;;;;;;;3.50;3.15;;;20.10;34.00;;;;;;5127093;27;47045;-28
2021/12/18 13:18:31;;;;;;;3.67;3.28;;;20.10;34.00;;;;;;5127111;27;46884;-27
2021/12/18 13:20:59;;;;;;;3.65;3.35;;;20.10;34.00;;;;;;5125601;27;47264;-27
2021/12/18 13:23:46;;;;;;;3.50;3.20;;;20.10;34.00;;;;;;5123862;27;46745;-27
2021/12/18 13:26:14;;;;;;;6.68;6.00;;;20.10;34.00;;;;;;5126724;27;46927;-27
2021/12/18 13:28:52;;;;;;;9.35;7.07;;;20.10;33.70;;;;;;5123983;27;47089;-27